Sunday, April 22, 2018, 5:56 PM EDT
Back to Local

KOXC, Oxford, Waterbury-oxford Airport

Location: Oxford, CT, United States Lat: 41.483
Local Time: 5:56 PM EDT (21:56 GMT) Lon: -73.133
Time Zone: US/Eastern Elev: 725 ft

Show me the last for .
Show Coded

Time T Td Feel RH Dir Speed Gust Alt SLP Vis Weather Sky Remarks
2018-04-22 16:51 60 14 - 16 Variable 7 - 30.32 30.37 10 CLR None
2018-04-22 15:51 60 18 - 19 360° 13 16 30.32 30.36 10 CLR None
2018-04-22 14:51 59 15 - 17 340° 15 22 30.34 30.38 10 CLR None
2018-04-22 13:51 58 16 - 19 350° 18 26 30.34 30.39 10 CLR 6-hr Min Temp (2pm): 43.0°F
6-hr Max Temp (2pm): 57.9°F
2018-04-22 12:51 57 17 - 20 320° 14 20 30.36 30.41 10 CLR None
2018-04-22 11:51 55 15 - 20 310° 12 18 30.38 30.42 10 CLR None
2018-04-22 10:51 53 18 - 24 310° 12 - 30.39 30.43 10 CLR None
2018-04-22 09:51 50 20 47 30 Variable 7 - 30.39 30.43 10 CLR None
2018-04-22 08:51 47 21 42 35 330° 10 - 30.39 30.44 10 CLR None
2018-04-22 07:51 43 21 38 41 330° 8 - 30.39 30.43 10 CLR 6-hr Min Temp (8am): 33.1°F
6-hr Max Temp (8am): 43.0°F
2018-04-22 06:51 39 19 36 44 310° 5 - 30.38 30.42 10 CLR None
2018-04-22 05:51 35 19 31 51 340° 5 - 30.36 30.41 10 CLR None
2018-04-22 04:51 40 19 34 42 330° 8 - 30.35 30.40 10 CLR None
2018-04-22 03:51 40 19 35 42 330° 7 - 30.35 30.40 10 CLR None
2018-04-22 02:51 41 20 36 42 340° 8 - 30.35 30.39 10 CLR None
2018-04-22 01:51 43 18 38 36 340° 9 - 30.34 30.38 10 CLR 6-hr Min Temp (2am): 43.0°F
6-hr Max Temp (2am): 53.1°F
2018-04-22 00:51 44 18 40 34 330° 8 - 30.35 30.39 10 CLR 24-hr Min Temp (1am): 32.0°F
24-hr Max Temp (1am): 57.0°F
2018-04-21 23:51 46 18 41 32 340° 12 - 30.33 30.37 10 CLR None
2018-04-21 22:51 43 21 37 41 350° 10 - 30.33 30.37 10 CLR None
2018-04-21 21:51 45 22 41 39 350° 7 - 30.32 30.36 10 CLR None
2018-04-21 20:51 45 23 41 41 350° 7 - 30.30 30.35 10 CLR None
2018-04-21 19:51 53 18 - 24 330° 9 - 30.28 30.32 10 CLR 6-hr Min Temp (8pm): 53.1°F
6-hr Max Temp (8pm): 57.0°F
2018-04-21 18:51 55 17 - 22 340° 12 - 30.25 30.29 10 CLR None

Support USWX by starting your Amazon purchase here.